createdAt,value
2023-05-29T00:00:06.462Z,66.45
2023-05-29T00:02:45.593Z,66.53
2023-05-29T00:05:19.778Z,66.45
2023-05-29T00:07:52.946Z,66.67
2023-05-29T00:10:27.621Z,66.96
2023-05-29T00:13:02.211Z,66.84
2023-05-29T00:15:35.726Z,67.08
2023-05-29T00:18:08.971Z,67.11
2023-05-29T00:20:42.229Z,67.16
2023-05-29T00:23:15.481Z,67.08
2023-05-29T00:25:50.060Z,67.27
2023-05-29T00:28:23.277Z,67.16
2023-05-29T00:30:56.423Z,67.27
2023-05-29T00:33:29.603Z,67.65
2023-05-29T00:36:02.862Z,67.26
2023-05-29T00:38:36.181Z,67.49
2023-05-29T00:41:15.015Z,67.53
2023-05-29T00:43:48.224Z,67.82
2023-05-29T00:46:22.650Z,67.96
2023-05-29T00:48:56.850Z,68.01
2023-05-29T00:51:32.475Z,68.01
2023-05-29T00:54:10.326Z,67.99
2023-05-29T00:56:45.551Z,67.93
2023-05-29T00:59:20.322Z,67.67
2023-05-29T01:01:55.286Z,67.52
2023-05-29T01:04:29.569Z,67.76
2023-05-29T01:07:03.465Z,67.81
2023-05-29T01:09:38.092Z,67.67
2023-05-29T01:12:25.513Z,67.65
2023-05-29T01:15:16.037Z,67.50
2023-05-29T01:18:05.385Z,67.42
2023-05-29T01:20:45.388Z,67.11
2023-05-29T01:23:45.524Z,67.31
2023-05-29T01:26:33.068Z,67.23
2023-05-29T01:29:09.902Z,67.29
2023-05-29T01:31:44.757Z,67.60
2023-05-29T01:34:18.047Z,67.95
2023-05-29T01:36:51.329Z,67.79
2023-05-29T01:39:25.884Z,68.03
2023-05-29T01:42:02.661Z,68.20
2023-05-29T01:44:37.387Z,68.58
2023-05-29T01:47:10.993Z,68.90
2023-05-29T01:49:45.669Z,69.12
2023-05-29T01:52:18.869Z,69.52
2023-05-29T01:54:55.136Z,69.74
2023-05-29T01:57:31.186Z,69.90
2023-05-29T02:00:10.005Z,70.09
2023-05-29T02:02:49.134Z,70.27
2023-05-29T02:05:22.670Z,70.06
2023-05-29T02:07:55.971Z,70.41
2023-05-29T02:10:29.287Z,70.63
2023-05-29T02:13:03.971Z,70.80
2023-05-29T02:15:37.212Z,71.20
2023-05-29T02:18:13.176Z,71.49
2023-05-29T02:20:49.330Z,71.55
2023-05-29T02:23:28.630Z,72.27
2023-05-29T02:26:01.810Z,72.28
2023-05-29T02:28:36.765Z,72.47
2023-05-29T02:31:10.164Z,73.10
2023-05-29T02:33:43.759Z,73.62
2023-05-29T02:36:17.574Z,73.99
2023-05-29T02:38:50.955Z,74.07
2023-05-29T02:41:24.223Z,74.15
2023-05-29T02:43:59.084Z,74.38
2023-05-29T02:46:32.483Z,74.51
2023-05-29T02:49:05.845Z,74.52
2023-05-29T02:51:39.561Z,74.68
2023-05-29T02:54:13.346Z,75.04
2023-05-29T02:56:47.575Z,75.64
2023-05-29T02:59:22.264Z,75.96
2023-05-29T03:01:55.926Z,76.08
2023-05-29T03:04:29.961Z,76.13
2023-05-29T03:07:03.174Z,75.97
2023-05-29T03:09:38.149Z,76.24
2023-05-29T03:12:13.910Z,76.39
2023-05-29T03:14:51.210Z,76.49
2023-05-29T03:17:24.378Z,76.56
2023-05-29T03:19:58.678Z,76.34
2023-05-29T03:22:31.910Z,76.40
2023-05-29T03:25:05.902Z,76.28
2023-05-29T03:27:40.697Z,76.22
2023-05-29T03:30:21.782Z,76.29
2023-05-29T03:32:56.717Z,76.35
2023-05-29T03:35:43.096Z,76.39
2023-05-29T03:38:16.329Z,76.55
2023-05-29T03:40:49.657Z,76.52
2023-05-29T03:43:22.908Z,76.49
2023-05-29T03:45:57.664Z,76.59
2023-05-29T03:48:31.789Z,76.59
2023-05-29T03:51:06.036Z,76.51
2023-05-29T03:53:42.664Z,76.38
2023-05-29T03:56:16.024Z,76.30
2023-05-29T03:58:49.209Z,76.17
2023-05-29T04:01:23.878Z,75.69
2023-05-29T04:03:57.480Z,75.90
2023-05-29T04:06:30.785Z,76.00
2023-05-29T04:09:04.084Z,75.54
2023-05-29T04:11:37.657Z,75.16
2023-05-29T04:14:10.835Z,74.50
2023-05-29T04:16:45.666Z,74.52
2023-05-29T04:19:19.926Z,74.39
2023-05-29T04:21:53.382Z,73.77
2023-05-29T04:24:26.646Z,73.47
2023-05-29T04:27:01.768Z,73.15
2023-05-29T04:29:36.134Z,72.94
2023-05-29T04:32:12.410Z,72.67
2023-05-29T04:34:46.081Z,72.69
2023-05-29T04:37:22.536Z,72.41
2023-05-29T04:39:55.773Z,72.58
2023-05-29T04:42:34.898Z,72.38
2023-05-29T04:45:11.630Z,72.12
2023-05-29T04:47:47.149Z,70.73
2023-05-29T04:50:20.453Z,70.81
2023-05-29T04:52:53.795Z,71.09
2023-05-29T04:55:26.964Z,69.89
2023-05-29T04:58:02.607Z,67.47
2023-05-29T05:00:35.944Z,66.13
2023-05-29T05:03:11.510Z,65.87
2023-05-29T05:05:45.999Z,65.65
2023-05-29T05:08:21.469Z,64.49
2023-05-29T05:10:54.862Z,65.04
2023-05-29T05:13:29.214Z,64.65
2023-05-29T05:16:02.843Z,64.53
2023-05-29T05:18:38.654Z,64.40
2023-05-29T05:21:14.510Z,64.39
2023-05-29T05:23:58.302Z,63.78
2023-05-29T05:26:32.950Z,64.04
2023-05-29T05:29:06.270Z,64.11
2023-05-29T05:31:41.130Z,63.09
2023-05-29T05:34:16.721Z,62.91
2023-05-29T05:36:51.362Z,63.38
2023-05-29T05:39:24.580Z,62.97
2023-05-29T05:41:58.782Z,61.91
2023-05-29T05:44:58.331Z,62.03
2023-05-29T05:47:31.899Z,62.25
2023-05-29T05:50:07.649Z,62.26
2023-05-29T05:52:40.934Z,61.57
2023-05-29T05:55:14.199Z,61.86
2023-05-29T05:57:47.542Z,61.61
2023-05-29T06:00:21.474Z,60.36
2023-05-29T06:02:54.591Z,60.60
2023-05-29T06:05:42.794Z,60.35
2023-05-29T06:08:16.380Z,60.09
2023-05-29T06:10:50.666Z,60.07
2023-05-29T06:13:23.840Z,58.93
2023-05-29T06:16:02.512Z,58.13
2023-05-29T06:18:36.732Z,57.37
2023-05-29T06:21:11.441Z,57.68
2023-05-29T06:23:50.724Z,56.77
2023-05-29T06:26:26.087Z,58.85
2023-05-29T06:29:00.971Z,57.85
2023-05-29T06:31:35.136Z,57.82
2023-05-29T06:34:08.412Z,58.85
2023-05-29T06:36:43.093Z,59.74
2023-05-29T06:39:19.082Z,59.64
2023-05-29T06:41:52.189Z,57.57
2023-05-29T06:44:25.449Z,56.77
2023-05-29T06:47:01.148Z,56.98
2023-05-29T06:49:34.438Z,57.11
2023-05-29T06:52:10.108Z,56.73
2023-05-29T06:55:02.363Z,55.67
2023-05-29T06:57:35.626Z,57.23
2023-05-29T07:00:11.961Z,56.66
2023-05-29T07:02:50.056Z,55.77
2023-05-29T07:05:23.730Z,56.30
2023-05-29T07:07:58.266Z,56.73
2023-05-29T07:10:31.417Z,58.21
2023-05-29T07:13:04.791Z,57.64
2023-05-29T07:15:39.790Z,56.42
2023-05-29T07:18:13.029Z,56.60
2023-05-29T07:20:46.661Z,57.39
2023-05-29T07:23:27.747Z,58.14
2023-05-29T07:26:02.456Z,58.48
2023-05-29T07:28:38.104Z,57.35
2023-05-29T07:31:11.359Z,56.80
2023-05-29T07:33:45.436Z,56.97
2023-05-29T07:36:21.217Z,55.35
2023-05-29T07:38:59.277Z,54.37
2023-05-29T07:41:32.850Z,55.47
2023-05-29T07:44:09.501Z,54.62
2023-05-29T07:46:42.770Z,55.11
2023-05-29T07:49:36.736Z,54.65
2023-05-29T07:52:10.422Z,54.66
2023-05-29T07:54:45.072Z,54.79
2023-05-29T07:57:19.608Z,56.31
2023-05-29T07:59:53.226Z,54.97
2023-05-29T08:02:27.553Z,53.64
2023-05-29T08:05:19.006Z,55.28
2023-05-29T08:07:52.293Z,54.46
2023-05-29T08:10:27.399Z,53.55
2023-05-29T08:13:00.726Z,54.82
2023-05-29T08:15:34.302Z,55.52
2023-05-29T08:18:08.044Z,54.68
2023-05-29T08:20:41.543Z,54.96
2023-05-29T08:23:14.825Z,55.98
2023-05-29T08:25:49.921Z,55.31
2023-05-29T08:28:27.405Z,55.16
2023-05-29T08:31:00.595Z,56.28
2023-05-29T08:33:34.035Z,55.57
2023-05-29T08:36:07.367Z,54.81
2023-05-29T08:38:40.676Z,53.39
2023-05-29T08:41:23.532Z,53.07
2023-05-29T08:43:58.290Z,53.61
2023-05-29T08:46:35.386Z,54.15
2023-05-29T08:49:11.080Z,54.96
2023-05-29T08:51:51.579Z,53.17
2023-05-29T08:54:25.895Z,54.94
2023-05-29T08:57:01.044Z,55.06
2023-05-29T08:59:35.504Z,53.48
2023-05-29T09:02:08.694Z,50.88
2023-05-29T09:04:46.059Z,51.10
2023-05-29T09:07:20.275Z,52.96
2023-05-29T09:09:53.423Z,51.45
2023-05-29T09:12:28.252Z,53.50
2023-05-29T09:15:01.551Z,53.68
2023-05-29T09:17:35.564Z,53.23
2023-05-29T09:20:18.985Z,53.34
2023-05-29T09:22:57.043Z,53.33
2023-05-29T09:25:32.903Z,53.14
2023-05-29T09:28:09.481Z,53.26
2023-05-29T09:30:44.017Z,52.20
2023-05-29T09:33:18.282Z,52.23
2023-05-29T09:35:52.307Z,51.37
2023-05-29T09:38:47.911Z,51.38
2023-05-29T09:41:24.822Z,51.80
2023-05-29T09:44:02.722Z,51.70
2023-05-29T09:46:36.892Z,52.01
2023-05-29T09:49:14.139Z,50.51
2023-05-29T09:51:50.001Z,50.98
2023-05-29T09:54:23.182Z,51.87
2023-05-29T09:56:58.116Z,52.72
2023-05-29T09:59:34.621Z,52.70
2023-05-29T10:02:12.567Z,51.45
2023-05-29T10:04:46.274Z,51.54
2023-05-29T10:07:27.922Z,50.95
2023-05-29T10:10:03.849Z,51.54
2023-05-29T10:12:40.611Z,50.25
2023-05-29T10:15:16.735Z,51.50
2023-05-29T10:17:53.749Z,51.73
2023-05-29T10:20:31.161Z,51.46
2023-05-29T10:23:06.783Z,51.42
2023-05-29T10:25:45.123Z,51.01
2023-05-29T10:28:18.470Z,50.14
2023-05-29T10:31:02.501Z,50.98
2023-05-29T10:34:00.640Z,50.00
2023-05-29T10:36:41.039Z,49.54
2023-05-29T10:39:14.456Z,49.41
2023-05-29T10:41:47.621Z,49.94
2023-05-29T10:44:41.229Z,49.73
2023-05-29T10:47:25.871Z,49.74
2023-05-29T10:50:02.713Z,48.88
2023-05-29T10:52:36.558Z,49.66
2023-05-29T10:55:12.751Z,50.65
2023-05-29T10:57:50.175Z,51.45
2023-05-29T11:00:25.711Z,51.28
2023-05-29T11:03:04.663Z,50.42
2023-05-29T11:05:58.352Z,48.28
2023-05-29T11:08:34.698Z,48.66
2023-05-29T11:11:07.884Z,49.92
2023-05-29T11:13:42.057Z,49.78
2023-05-29T11:16:21.321Z,49.60
2023-05-29T11:18:57.205Z,49.13
2023-05-29T11:21:35.632Z,47.77
2023-05-29T11:24:08.907Z,48.09
2023-05-29T11:26:42.648Z,48.93
2023-05-29T11:29:17.867Z,46.49
2023-05-29T11:32:00.080Z,47.98
2023-05-29T11:34:36.302Z,46.86
2023-05-29T11:37:10.011Z,47.70
2023-05-29T11:39:43.490Z,47.45
2023-05-29T11:42:17.894Z,46.21
2023-05-29T11:44:51.017Z,46.42
2023-05-29T11:47:25.499Z,45.91
2023-05-29T11:50:00.138Z,46.50
2023-05-29T11:52:33.340Z,45.31
2023-05-29T11:55:09.114Z,45.64
2023-05-29T11:57:42.426Z,45.14
2023-05-29T12:00:17.213Z,45.25
2023-05-29T12:02:51.070Z,45.91
2023-05-29T12:05:25.995Z,45.56
2023-05-29T12:08:02.101Z,47.71
2023-05-29T12:10:35.459Z,47.25
2023-05-29T12:13:08.661Z,46.63
2023-05-29T12:15:42.279Z,47.05
2023-05-29T12:18:16.895Z,45.94
2023-05-29T12:20:52.198Z,45.00
2023-05-29T12:23:25.461Z,45.56
2023-05-29T12:25:58.906Z,46.20
2023-05-29T12:28:32.117Z,45.41
2023-05-29T12:31:08.967Z,44.31
2023-05-29T12:33:45.731Z,45.42
2023-05-29T12:36:20.263Z,44.72
2023-05-29T12:38:54.658Z,46.34
2023-05-29T12:41:29.652Z,44.74
2023-05-29T12:44:05.048Z,44.54
2023-05-29T12:46:39.951Z,44.45
2023-05-29T12:49:17.275Z,44.93
2023-05-29T12:51:53.527Z,45.01
2023-05-29T12:54:26.760Z,46.90
2023-05-29T12:57:02.249Z,46.37
2023-05-29T12:59:35.793Z,45.72
2023-05-29T13:02:09.253Z,46.36
2023-05-29T13:04:42.476Z,46.98
2023-05-29T13:07:17.111Z,46.83
2023-05-29T13:09:50.392Z,46.16
2023-05-29T13:12:23.602Z,45.84
2023-05-29T13:14:57.356Z,45.42
2023-05-29T13:17:31.054Z,45.32
2023-05-29T13:20:09.172Z,44.97
2023-05-29T13:22:46.312Z,44.85
2023-05-29T13:25:21.444Z,43.87
2023-05-29T13:27:54.735Z,43.39
2023-05-29T13:30:28.140Z,44.84
2023-05-29T13:33:01.353Z,44.72
2023-05-29T13:35:34.564Z,44.37
2023-05-29T13:38:09.166Z,45.27
2023-05-29T13:40:42.437Z,45.26
2023-05-29T13:43:15.648Z,45.66
2023-05-29T13:45:51.211Z,45.70
2023-05-29T13:48:24.472Z,45.53
2023-05-29T13:50:57.626Z,45.09
2023-05-29T13:53:32.219Z,44.83
2023-05-29T13:56:08.573Z,46.71
2023-05-29T13:58:41.700Z,45.45
2023-05-29T14:01:16.385Z,44.37
2023-05-29T14:03:49.628Z,44.92
2023-05-29T14:06:22.942Z,44.95
2023-05-29T14:08:57.893Z,45.04
2023-05-29T14:11:31.145Z,44.91
2023-05-29T14:14:04.384Z,45.05
2023-05-29T14:16:37.861Z,44.97
2023-05-29T14:19:11.520Z,43.49
2023-05-29T14:21:45.532Z,44.75
2023-05-29T14:24:20.558Z,43.81
2023-05-29T14:26:53.914Z,44.02
2023-05-29T14:29:27.653Z,45.08
2023-05-29T14:32:00.821Z,45.95
2023-05-29T14:34:33.984Z,45.39
2023-05-29T14:37:09.777Z,45.62
2023-05-29T14:39:44.307Z,45.45
2023-05-29T14:42:18.384Z,44.96
2023-05-29T14:44:51.742Z,45.99
2023-05-29T14:47:24.991Z,45.33
2023-05-29T14:49:58.235Z,44.25
2023-05-29T14:52:31.570Z,44.44
2023-05-29T14:55:07.090Z,44.54
2023-05-29T14:57:40.336Z,44.82
2023-05-29T15:00:15.169Z,44.77
2023-05-29T15:02:48.466Z,44.61
2023-05-29T15:05:21.735Z,45.76
2023-05-29T15:07:57.612Z,45.69
2023-05-29T15:10:34.621Z,46.26
2023-05-29T15:13:08.456Z,46.22
2023-05-29T15:18:20.390Z,45.62
2023-05-29T15:20:54.955Z,45.39
2023-05-29T15:23:28.756Z,46.00
2023-05-29T15:26:04.411Z,45.93
2023-05-29T15:28:37.648Z,45.17
2023-05-29T15:31:10.907Z,45.16
2023-05-29T15:33:44.094Z,45.96
2023-05-29T15:36:20.263Z,46.03
2023-05-29T15:38:53.413Z,45.60
2023-05-29T15:41:30.035Z,46.15
2023-05-29T15:44:03.309Z,46.25
2023-05-29T15:46:36.576Z,45.93
2023-05-29T15:49:09.884Z,45.48
2023-05-29T15:51:43.860Z,45.58
2023-05-29T15:54:17.039Z,46.22
2023-05-29T15:56:51.575Z,47.06
2023-05-29T15:59:24.774Z,46.79
2023-05-29T16:01:57.974Z,46.78
2023-05-29T16:04:32.710Z,46.85
2023-05-29T16:07:07.088Z,46.48
2023-05-29T16:09:40.580Z,46.04
2023-05-29T16:12:15.267Z,45.67
2023-05-29T16:14:49.130Z,46.01
2023-05-29T16:17:22.307Z,46.43
2023-05-29T16:19:57.343Z,47.12
2023-05-29T16:22:41.831Z,46.67
2023-05-29T16:25:16.061Z,47.23
2023-05-29T16:27:50.699Z,46.52
2023-05-29T16:30:24.404Z,45.30
2023-05-29T16:32:57.582Z,44.25
2023-05-29T16:35:31.358Z,44.41
2023-05-29T16:38:04.623Z,45.18
2023-05-29T16:40:38.555Z,45.18
2023-05-29T16:43:13.073Z,44.82
2023-05-29T16:45:46.514Z,45.41
2023-05-29T16:48:19.777Z,45.91
2023-05-29T16:50:53.651Z,45.06
2023-05-29T16:53:26.961Z,45.57
2023-05-29T16:56:00.269Z,45.46
2023-05-29T16:58:35.021Z,45.03
2023-05-29T17:01:09.203Z,44.18
2023-05-29T17:03:42.557Z,43.25
2023-05-29T17:06:15.759Z,43.05
2023-05-29T17:08:48.870Z,43.44
2023-05-29T17:11:23.170Z,43.43
2023-05-29T17:13:57.799Z,42.97
2023-05-29T17:16:33.543Z,41.88
2023-05-29T17:19:07.299Z,42.47
2023-05-29T17:21:41.467Z,42.19
2023-05-29T17:24:14.878Z,42.13
2023-05-29T17:26:48.118Z,42.82
2023-05-29T17:29:22.628Z,42.38
2023-05-29T17:31:55.851Z,42.07
2023-05-29T17:34:29.101Z,41.59
2023-05-29T17:37:02.385Z,40.50
2023-05-29T17:39:35.560Z,40.73
2023-05-29T17:42:12.026Z,40.50
2023-05-29T17:44:46.501Z,40.78
2023-05-29T17:47:19.768Z,40.65
2023-05-29T17:49:52.934Z,40.49
2023-05-29T17:52:26.297Z,40.62
2023-05-29T17:54:59.462Z,40.38
2023-05-29T17:57:32.680Z,40.25
2023-05-29T18:00:09.176Z,39.44
2023-05-29T18:02:51.899Z,39.83
2023-05-29T18:05:25.078Z,38.85
2023-05-29T18:08:00.524Z,38.96
2023-05-29T18:10:33.754Z,38.77
2023-05-29T18:13:07.266Z,39.60
2023-05-29T18:15:41.801Z,40.24
2023-05-29T18:18:15.274Z,40.37
2023-05-29T18:20:48.582Z,41.16
2023-05-29T18:23:22.600Z,40.84
2023-05-29T18:25:56.165Z,40.89
2023-05-29T18:28:29.446Z,41.07
2023-05-29T18:31:04.006Z,41.30
2023-05-29T18:33:37.187Z,41.29
2023-05-29T18:36:11.946Z,40.83
2023-05-29T18:38:45.195Z,41.14
2023-05-29T18:41:18.486Z,41.35
2023-05-29T18:43:54.259Z,41.85
2023-05-29T18:46:28.955Z,42.10
2023-05-29T18:49:02.217Z,42.36
2023-05-29T18:51:36.106Z,42.16
2023-05-29T18:54:09.366Z,42.50
2023-05-29T18:56:42.571Z,43.03
2023-05-29T18:59:16.091Z,42.74
2023-05-29T19:01:50.840Z,43.20
2023-05-29T19:04:26.494Z,43.13
2023-05-29T19:06:59.791Z,43.17
2023-05-29T19:09:33.071Z,43.50
2023-05-29T19:12:07.793Z,43.64
2023-05-29T19:14:41.095Z,43.87
2023-05-29T19:17:16.748Z,43.84
2023-05-29T19:19:50.125Z,44.19
2023-05-29T19:22:24.029Z,44.56
2023-05-29T19:24:57.266Z,44.80
2023-05-29T19:27:30.696Z,45.25
2023-05-29T19:30:04.046Z,46.02
2023-05-29T19:32:39.091Z,46.58
2023-05-29T19:35:13.905Z,47.04
2023-05-29T19:37:48.940Z,47.70
2023-05-29T19:40:22.194Z,48.12
2023-05-29T19:42:55.396Z,48.14
2023-05-29T19:45:28.576Z,48.47
2023-05-29T19:48:03.454Z,48.91
2023-05-29T19:50:37.530Z,49.26
2023-05-29T19:53:12.563Z,49.24
2023-05-29T19:55:48.260Z,49.25
2023-05-29T19:58:23.829Z,49.31
2023-05-29T20:00:57.339Z,49.25
2023-05-29T20:03:34.022Z,49.24
2023-05-29T20:06:07.913Z,49.37
2023-05-29T20:08:41.120Z,49.26
2023-05-29T20:11:14.368Z,49.48
2023-05-29T20:13:47.518Z,49.63
2023-05-29T20:16:20.828Z,49.71
2023-05-29T20:18:55.364Z,49.72
2023-05-29T20:21:28.580Z,49.53
2023-05-29T20:24:02.260Z,49.88
2023-05-29T20:26:35.439Z,49.75
2023-05-29T20:29:08.687Z,49.94
2023-05-29T20:31:42.124Z,50.10
2023-05-29T20:34:18.872Z,50.33
2023-05-29T20:36:52.111Z,50.20
2023-05-29T20:39:28.150Z,50.41
2023-05-29T20:42:02.284Z,50.30
2023-05-29T20:44:36.125Z,50.67
2023-05-29T20:47:10.356Z,50.87
2023-05-29T20:49:45.005Z,50.77
2023-05-29T20:52:18.205Z,50.85
2023-05-29T20:54:51.418Z,50.90
2023-05-29T20:57:24.719Z,51.23
2023-05-29T20:59:57.956Z,51.28
2023-05-29T21:02:31.281Z,51.27
2023-05-29T21:05:08.353Z,51.25
2023-05-29T21:07:42.118Z,51.43
2023-05-29T21:10:15.502Z,51.29
2023-05-29T21:12:48.685Z,51.43
2023-05-29T21:15:22.237Z,51.51
2023-05-29T21:17:55.629Z,51.81
2023-05-29T21:20:30.252Z,52.07
2023-05-29T21:23:03.576Z,52.26
2023-05-29T21:25:36.779Z,52.44
2023-05-29T21:28:10.058Z,52.60
2023-05-29T21:30:45.528Z,52.96
2023-05-29T21:33:19.294Z,52.91
2023-05-29T21:35:53.966Z,53.24
2023-05-29T21:38:27.208Z,53.33
2023-05-29T21:41:00.679Z,53.66
2023-05-29T21:43:35.982Z,53.63
2023-05-29T21:46:11.971Z,53.61
2023-05-29T21:48:45.136Z,53.71
2023-05-29T21:51:19.828Z,53.90
2023-05-29T21:53:53.005Z,54.09
2023-05-29T21:56:27.582Z,54.21
2023-05-29T21:59:00.832Z,54.39
2023-05-29T22:01:34.088Z,54.63
2023-05-29T22:04:07.636Z,54.74
2023-05-29T22:06:42.632Z,54.82
2023-05-29T22:09:15.976Z,55.05
2023-05-29T22:11:50.448Z,55.17
2023-05-29T22:14:23.721Z,55.37
2023-05-29T22:16:59.605Z,55.69
2023-05-29T22:19:33.372Z,56.11
2023-05-29T22:22:07.953Z,56.14
2023-05-29T22:24:42.260Z,56.37
2023-05-29T22:27:16.045Z,56.68
2023-05-29T22:29:49.206Z,57.13
2023-05-29T22:32:22.441Z,57.20
2023-05-29T22:34:55.762Z,57.57
2023-05-29T22:37:30.658Z,57.56
2023-05-29T22:40:08.083Z,57.84
2023-05-29T22:42:41.415Z,58.08
2023-05-29T22:45:15.137Z,58.33
2023-05-29T22:47:48.484Z,58.68
2023-05-29T22:50:22.234Z,58.71
2023-05-29T22:52:57.743Z,58.91
2023-05-29T22:55:31.002Z,59.13
2023-05-29T22:58:04.346Z,59.36
2023-05-29T23:00:38.346Z,59.51
2023-05-29T23:03:11.665Z,59.53
2023-05-29T23:05:45.623Z,59.74
2023-05-29T23:08:20.371Z,59.85
2023-05-29T23:10:53.535Z,60.05
2023-05-29T23:13:26.947Z,60.22
2023-05-29T23:16:00.171Z,60.20
2023-05-29T23:18:33.468Z,60.32
2023-05-29T23:21:07.705Z,60.28
2023-05-29T23:23:42.329Z,60.46
2023-05-29T23:26:15.809Z,60.35
2023-05-29T23:28:48.962Z,60.55
2023-05-29T23:31:22.123Z,60.46
2023-05-29T23:33:55.377Z,60.55
2023-05-29T23:36:28.498Z,60.71
2023-05-29T23:39:03.020Z,61.06
2023-05-29T23:41:36.481Z,61.24
2023-05-29T23:44:10.076Z,61.51
2023-05-29T23:46:43.321Z,61.81
2023-05-29T23:49:16.485Z,61.63
2023-05-29T23:51:50.734Z,62.03
2023-05-29T23:54:25.401Z,61.95
2023-05-29T23:56:58.569Z,62.06
2023-05-29T23:59:31.699Z,61.82
